Time,TemperatureF,DewpointF,PressureIn,WindDirection,WindDirectionDegrees,WindSpeedMPH,WindSpeedGustMPH,Humidity,HourlyPrecipIn,Conditions,Clouds,dailyrainin,SoftwareType,DateUTC
2013-06-20 00:05:00,69.4,54.5,29.94,ESE,117,4.0,6.3,59,0.00,,---,0.00,VWS V14.01,2013-06-20 05:05:00,
2013-06-20 00:10:00,69.3,54.8,29.94,ESE,110,6.3,7.6,60,0.00,,---,0.00,VWS V14.01,2013-06-20 05:10:00,
2013-06-20 00:15:00,69.1,54.6,29.94,ESE,121,3.6,8.3,60,0.00,,---,0.00,VWS V14.01,2013-06-20 05:15:00,
2013-06-20 00:21:00,69.1,54.6,29.94,ESE,119,4.9,6.3,60,0.00,,---,0.00,VWS V14.01,2013-06-20 05:21:00,
2013-06-20 00:26:00,68.9,54.5,29.94,ESE,109,3.6,7.6,60,0.00,,---,0.00,VWS V14.01,2013-06-20 05:26:00,
2013-06-20 00:32:00,68.7,54.3,29.94,SE,127,4.0,6.3,60,0.00,,---,0.00,VWS V14.01,2013-06-20 05:32:00,
2013-06-20 00:37:00,68.9,54.9,29.94,ESE,108,6.3,6.3,61,0.00,,---,0.00,VWS V14.01,2013-06-20 05:37:00,
2013-06-20 00:43:00,68.7,54.3,29.94,ESE,115,5.4,5.4,60,0.00,,---,0.00,VWS V14.01,2013-06-20 05:43:00,
2013-06-20 00:49:00,68.7,54.7,29.94,SE,138,4.9,4.9,61,0.00,,---,0.00,VWS V14.01,2013-06-20 05:49:00,
2013-06-20 00:54:00,68.7,54.7,29.94,SE,125,3.1,4.0,61,0.00,,---,0.00,VWS V14.01,2013-06-20 05:54:00,
2013-06-20 01:00:00,68.5,54.1,29.94,SE,143,3.1,3.1,60,0.00,,---,0.00,VWS V14.01,2013-06-20 06:00:00,
2013-06-20 01:05:00,68.4,54.4,29.94,ESE,122,3.6,4.0,61,0.00,,---,0.00,VWS V14.01,2013-06-20 06:05:00,
2013-06-20 01:11:00,68.2,54.2,29.94,ESE,123,3.1,3.6,61,0.00,,---,0.00,VWS V14.01,2013-06-20 06:11:00,
2013-06-20 01:17:00,68.2,55.1,29.94,SE,143,3.6,3.6,63,0.00,,---,0.00,VWS V14.01,2013-06-20 06:17:00,
2013-06-20 01:22:00,68.0,55.0,29.94,SE,143,0.0,0.0,63,0.00,,---,0.00,VWS V14.01,2013-06-20 06:22:00,
2013-06-20 01:28:00,67.8,55.6,29.94,SE,141,2.2,3.1,65,0.00,,---,0.00,VWS V14.01,2013-06-20 06:28:00,
2013-06-20 01:33:00,67.8,55.2,29.97,SE,141,2.7,3.1,64,0.00,,---,0.00,VWS V14.01,2013-06-20 06:33:00,
2013-06-20 01:38:00,67.6,55.0,29.97,SE,141,0.0,0.0,64,0.00,,---,0.00,VWS V14.01,2013-06-20 06:38:00,
2013-06-20 01:43:00,67.6,55.0,29.97,SE,141,0.0,2.2,64,0.00,,---,0.00,VWS V14.01,2013-06-20 06:43:00,
2013-06-20 01:49:00,67.6,55.5,29.97,SE,137,2.7,2.7,65,0.00,,---,0.00,VWS V14.01,2013-06-20 06:49:00,
2013-06-20 01:54:00,67.8,55.6,29.97,SE,137,2.2,2.7,65,0.00,,---,0.00,VWS V14.01,2013-06-20 06:54:00,
2013-06-20 01:59:00,67.8,55.2,29.97,SE,129,2.7,2.7,64,0.00,,---,0.00,VWS V14.01,2013-06-20 06:59:00,
2013-06-20 02:04:00,68.2,55.5,29.94,SE,130,2.2,3.6,64,0.00,,---,0.00,VWS V14.01,2013-06-20 07:04:00,
2013-06-20 02:09:00,68.2,55.5,29.94,SE,130,2.2,2.7,64,0.00,,---,0.00,VWS V14.01,2013-06-20 07:09:00,
2013-06-20 02:14:00,68.2,55.1,29.94,SE,129,2.7,3.1,63,0.00,,---,0.00,VWS V14.01,2013-06-20 07:14:00,
2013-06-20 02:20:00,68.2,54.7,29.94,SE,129,0.0,0.0,62,0.00,,---,0.00,VWS V14.01,2013-06-20 07:20:00,
2013-06-20 02:25:00,68.4,54.8,29.94,SE,144,0.0,0.0,62,0.00,,---,0.00,VWS V14.01,2013-06-20 07:25:00,
2013-06-20 02:31:00,68.2,54.7,29.97,SE,144,0.0,0.0,62,0.00,,---,0.00,VWS V14.01,2013-06-20 07:31:00,
2013-06-20 02:36:00,68.2,54.2,29.97,SSE,153,0.0,0.0,61,0.00,,---,0.00,VWS V14.01,2013-06-20 07:36:00,
2013-06-20 02:42:00,68.2,53.8,29.97,SSW,193,0.0,2.7,60,0.00,,---,0.00,VWS V14.01,2013-06-20 07:42:00,
2013-06-20 02:48:00,68.2,54.2,29.97,SSE,159,2.2,2.7,61,0.00,,---,0.00,VWS V14.01,2013-06-20 07:48:00,
2013-06-20 02:53:00,68.2,54.2,29.97,South,171,0.0,0.0,61,0.00,,---,0.00,VWS V14.01,2013-06-20 07:53:00,
2013-06-20 02:59:00,68.2,54.2,29.97,South,173,0.0,0.0,61,0.00,,---,0.00,VWS V14.01,2013-06-20 07:59:00,
2013-06-20 03:04:00,68.4,54.4,29.97,South,181,2.7,4.0,61,0.00,,---,0.00,VWS V14.01,2013-06-20 08:04:00,
2013-06-20 03:10:00,68.4,54.4,29.97,SSE,164,3.6,3.6,61,0.00,,---,0.00,VWS V14.01,2013-06-20 08:10:00,
2013-06-20 03:16:00,68.4,54.8,29.97,SSE,156,2.7,3.1,62,0.00,,---,0.00,VWS V14.01,2013-06-20 08:16:00,
2013-06-20 03:21:00,68.4,55.3,29.97,SSE,155,0.0,0.0,63,0.00,,---,0.00,VWS V14.01,2013-06-20 08:21:00,
2013-06-20 03:26:00,68.2,55.5,29.97,SSE,155,0.0,2.2,64,0.00,,---,0.00,VWS V14.01,2013-06-20 08:26:00,
2013-06-20 03:31:00,67.8,55.6,29.94,SSE,155,0.0,0.0,65,0.00,,---,0.00,VWS V14.01,2013-06-20 08:31:00,
2013-06-20 03:36:00,67.6,55.9,29.94,SSE,155,0.0,0.0,66,0.00,,---,0.00,VWS V14.01,2013-06-20 08:36:00,
2013-06-20 03:42:00,67.5,56.1,29.94,SSE,155,0.0,0.0,67,0.00,,---,0.00,VWS V14.01,2013-06-20 08:42:00,
2013-06-20 03:48:00,67.3,56.0,29.94,South,170,3.1,4.0,67,0.00,,---,0.00,VWS V14.01,2013-06-20 08:48:00,
2013-06-20 03:53:00,67.5,56.5,29.94,South,172,0.0,0.0,68,0.00,,---,0.00,VWS V14.01,2013-06-20 08:53:00,
2013-06-20 03:58:00,67.6,57.5,29.94,South,173,0.0,2.2,70,0.00,,---,0.00,VWS V14.01,2013-06-20 08:58:00,
2013-06-20 04:03:00,67.8,57.7,29.94,South,174,3.6,3.6,70,0.00,,---,0.00,VWS V14.01,2013-06-20 09:03:00,
2013-06-20 04:09:00,68.0,57.5,29.94,South,181,2.7,2.7,69,0.00,,---,0.00,VWS V14.01,2013-06-20 09:09:00,
2013-06-20 04:14:00,68.2,57.2,29.94,SE,139,0.0,0.0,68,0.00,,---,0.00,VWS V14.01,2013-06-20 09:14:00,
2013-06-20 04:19:00,68.4,57.8,29.94,SE,139,0.0,0.0,69,0.00,,---,0.00,VWS V14.01,2013-06-20 09:19:00,
2013-06-20 04:24:00,68.5,58.0,29.94,SSE,159,0.0,3.6,69,0.00,,---,0.00,VWS V14.01,2013-06-20 09:24:00,
2013-06-20 04:30:00,68.5,57.6,29.94,South,178,0.0,0.0,68,0.00,,---,0.00,VWS V14.01,2013-06-20 09:30:00,
2013-06-20 04:35:00,68.5,57.2,29.94,South,178,0.0,0.0,67,0.00,,---,0.00,VWS V14.01,2013-06-20 09:35:00,
2013-06-20 04:41:00,68.4,57.4,29.94,South,178,0.0,0.0,68,0.00,,---,0.00,VWS V14.01,2013-06-20 09:41:00,
2013-06-20 04:47:00,68.4,57.4,29.94,South,191,4.0,4.0,68,0.00,,---,0.00,VWS V14.01,2013-06-20 09:47:00,
2013-06-20 04:52:00,68.4,57.4,29.94,South,183,2.7,2.7,68,0.00,,---,0.00,VWS V14.01,2013-06-20 09:52:00,
2013-06-20 04:58:00,68.4,57.4,29.94,South,180,2.7,3.1,68,0.00,,---,0.00,VWS V14.01,2013-06-20 09:58:00,
2013-06-20 05:03:00,68.4,57.4,29.94,South,183,4.0,4.0,68,0.00,,---,0.00,VWS V14.01,2013-06-20 10:03:00,
2013-06-20 05:09:00,68.4,57.8,29.94,SSW,194,0.0,2.2,69,0.00,,---,0.00,VWS V14.01,2013-06-20 10:09:00,
2013-06-20 05:15:00,68.4,57.8,29.94,South,188,0.0,2.2,69,0.00,,---,0.00,VWS V14.01,2013-06-20 10:15:00,
2013-06-20 05:20:00,68.4,58.2,29.94,SSE,168,0.0,2.7,70,0.00,,---,0.00,VWS V14.01,2013-06-20 10:20:00,
2013-06-20 05:26:00,68.4,58.6,29.94,SSE,168,0.0,0.0,71,0.00,,---,0.00,VWS V14.01,2013-06-20 10:26:00,
2013-06-20 05:31:00,68.4,58.6,29.94,South,170,2.7,2.7,71,0.00,,---,0.00,VWS V14.01,2013-06-20 10:31:00,
2013-06-20 05:37:00,68.4,58.6,29.94,SSE,165,0.0,3.1,71,0.00,,---,0.00,VWS V14.01,2013-06-20 10:37:00,
2013-06-20 05:43:00,68.4,58.6,29.94,SSE,166,0.0,0.0,71,0.00,,---,0.00,VWS V14.01,2013-06-20 10:43:00,
2013-06-20 05:48:00,68.4,58.6,29.94,South,185,4.0,4.0,71,0.00,,---,0.00,VWS V14.01,2013-06-20 10:48:00,
2013-06-20 05:53:00,68.4,59.0,29.94,South,184,0.0,2.7,72,0.00,,---,0.00,VWS V14.01,2013-06-20 10:53:00,
2013-06-20 05:59:00,68.5,59.2,29.94,South,185,2.7,2.7,72,0.00,,---,0.00,VWS V14.01,2013-06-20 10:59:00,
2013-06-20 06:05:00,68.5,58.8,29.94,South,170,4.0,5.8,71,0.00,,---,0.00,VWS V14.01,2013-06-20 11:05:00,
2013-06-20 06:10:00,68.5,58.4,29.94,South,182,5.4,5.4,70,0.00,,---,0.00,VWS V14.01,2013-06-20 11:10:00,
2013-06-20 06:16:00,68.9,58.7,29.94,SSW,199,5.4,5.4,70,0.00,,---,0.00,VWS V14.01,2013-06-20 11:16:00,
2013-06-20 06:22:00,68.9,58.3,29.94,South,180,5.8,5.8,69,0.00,,---,0.00,VWS V14.01,2013-06-20 11:22:00,
2013-06-20 06:27:00,69.1,58.5,29.94,SSW,192,3.6,4.0,69,0.00,,---,0.00,VWS V14.01,2013-06-20 11:27:00,
2013-06-20 06:33:00,69.3,58.7,29.94,SSW,194,5.8,5.8,69,0.00,,---,0.00,VWS V14.01,2013-06-20 11:33:00,
2013-06-20 06:38:00,69.3,58.7,29.94,South,169,4.9,5.4,69,0.00,,---,0.00,VWS V14.01,2013-06-20 11:38:00,
2013-06-20 06:44:00,69.4,58.8,29.94,SW,218,6.3,6.3,69,0.00,,---,0.00,VWS V14.01,2013-06-20 11:44:00,
2013-06-20 06:50:00,69.6,58.6,29.94,SSE,149,4.5,6.3,68,0.00,,---,0.00,VWS V14.01,2013-06-20 11:50:00,
2013-06-20 06:55:00,69.6,58.6,29.94,SSW,192,3.1,4.0,68,0.00,,---,0.00,VWS V14.01,2013-06-20 11:55:00,
2013-06-20 07:01:00,69.8,58.8,29.94,South,188,4.0,7.2,68,0.00,,---,0.00,VWS V14.01,2013-06-20 12:01:00,
2013-06-20 07:07:00,69.6,58.6,29.94,South,175,3.6,6.3,68,0.00,,---,0.00,VWS V14.01,2013-06-20 12:07:00,
2013-06-20 07:12:00,69.8,58.4,29.94,SSW,199,5.4,5.4,67,0.00,,---,0.00,VWS V14.01,2013-06-20 12:12:00,
2013-06-20 07:17:00,69.8,58.8,29.94,South,188,4.0,6.3,68,0.00,,---,0.00,VWS V14.01,2013-06-20 12:17:00,
2013-06-20 07:22:00,69.8,58.4,29.94,South,182,4.9,5.8,67,0.00,,---,0.00,VWS V14.01,2013-06-20 12:22:00,
2013-06-20 07:28:00,69.8,58.4,29.94,SSW,196,6.3,6.3,67,0.00,,---,0.00,VWS V14.01,2013-06-20 12:28:00,
2013-06-20 07:33:00,70.0,58.5,29.97,South,186,3.1,5.8,67,0.00,,---,0.00,VWS V14.01,2013-06-20 12:33:00,
2013-06-20 07:39:00,70.2,58.7,29.97,SSW,193,0.0,3.1,67,0.00,,---,0.00,VWS V14.01,2013-06-20 12:39:00,
2013-06-20 07:44:00,70.2,58.7,29.97,South,175,2.7,2.7,67,0.00,,---,0.00,VWS V14.01,2013-06-20 12:44:00,
2013-06-20 07:49:00,70.3,58.9,29.97,SSW,197,2.2,4.0,67,0.00,,---,0.00,VWS V14.01,2013-06-20 12:49:00,
2013-06-20 07:54:00,70.3,58.9,29.97,SSW,193,5.4,5.4,67,0.00,,---,0.00,VWS V14.01,2013-06-20 12:54:00,
2013-06-20 07:59:00,70.5,59.0,29.97,SSW,192,0.0,0.0,67,0.00,,---,0.00,VWS V14.01,2013-06-20 12:59:00,
2013-06-20 08:05:00,70.5,59.0,29.97,South,183,2.7,3.1,67,0.00,,---,0.00,VWS V14.01,2013-06-20 13:05:00,
2013-06-20 08:11:00,70.7,59.2,29.97,SSW,201,4.0,4.0,67,0.00,,---,0.00,VWS V14.01,2013-06-20 13:11:00,
2013-06-20 08:17:00,70.9,59.4,29.97,SSE,166,0.0,4.9,67,0.00,,---,0.00,VWS V14.01,2013-06-20 13:17:00,
2013-06-20 08:22:00,71.1,59.1,29.97,South,184,2.2,4.0,66,0.00,,---,0.00,VWS V14.01,2013-06-20 13:22:00,
2013-06-20 08:27:00,71.2,59.3,29.97,South,190,0.0,3.6,66,0.00,,---,0.00,VWS V14.01,2013-06-20 13:27:00,
2013-06-20 08:33:00,71.2,59.3,29.97,South,187,2.7,3.6,66,0.00,,---,0.00,VWS V14.01,2013-06-20 13:33:00,
2013-06-20 08:39:00,71.2,58.9,29.97,South,172,3.6,4.0,65,0.00,,---,0.00,VWS V14.01,2013-06-20 13:39:00,
2013-06-20 08:44:00,71.4,59.5,29.97,South,186,0.0,0.0,66,0.00,,---,0.00,VWS V14.01,2013-06-20 13:44:00,
2013-06-20 08:50:00,72.1,59.7,30.00,SSE,158,2.2,3.6,65,0.00,,---,0.00,VWS V14.01,2013-06-20 13:50:00,
2013-06-20 08:56:00,72.7,60.2,30.00,SSE,160,0.0,0.0,65,0.00,,---,0.00,VWS V14.01,2013-06-20 13:56:00,
2013-06-20 09:01:00,72.9,60.4,30.00,SSE,160,0.0,0.0,65,0.00,,---,0.00,VWS V14.01,2013-06-20 14:01:00,
2013-06-20 09:07:00,73.2,60.3,30.00,South,171,2.7,4.0,64,0.00,,---,0.00,VWS V14.01,2013-06-20 14:07:00,
2013-06-20 09:12:00,73.4,60.0,30.00,South,171,0.0,0.0,63,0.00,,---,0.00,VWS V14.01,2013-06-20 14:12:00,
2013-06-20 09:18:00,73.6,60.2,30.00,South,171,0.0,0.0,63,0.00,,---,0.00,VWS V14.01,2013-06-20 14:18:00,
2013-06-20 09:23:00,73.8,59.9,30.00,South,171,0.0,0.0,62,0.00,,---,0.00,VWS V14.01,2013-06-20 14:23:00,
2013-06-20 09:28:00,73.6,60.2,30.00,South,171,0.0,0.0,63,0.00,,---,0.00,VWS V14.01,2013-06-20 14:28:00,
2013-06-20 09:34:00,73.2,59.9,30.00,South,171,0.0,0.0,63,0.00,,---,0.00,VWS V14.01,2013-06-20 14:34:00,
2013-06-20 09:39:00,72.9,59.5,30.00,South,170,0.0,0.0,63,0.00,,---,0.00,VWS V14.01,2013-06-20 14:39:00,
2013-06-20 09:44:00,73.0,60.2,30.00,South,171,0.0,0.0,64,0.00,,---,0.00,VWS V14.01,2013-06-20 14:44:00,
2013-06-20 09:49:00,73.9,61.0,30.00,South,171,0.0,0.0,64,0.00,,---,0.00,VWS V14.01,2013-06-20 14:49:00,
2013-06-20 09:55:00,75.2,61.3,30.00,South,171,0.0,0.0,62,0.00,,---,0.00,VWS V14.01,2013-06-20 14:55:00,
2013-06-20 10:00:00,76.1,60.8,30.00,South,171,0.0,0.0,59,0.00,,---,0.00,VWS V14.01,2013-06-20 15:00:00,
2013-06-20 10:06:00,77.7,61.3,30.00,SW,214,4.0,5.4,57,0.00,,---,0.00,VWS V14.01,2013-06-20 15:06:00,
2013-06-20 10:11:00,78.3,58.7,30.00,SW,216,6.7,6.7,51,0.00,,---,0.00,VWS V14.01,2013-06-20 15:11:00,
2013-06-20 10:16:00,78.3,58.1,30.00,WSW,247,4.0,5.8,50,0.00,,---,0.00,VWS V14.01,2013-06-20 15:16:00,
2013-06-20 10:21:00,78.4,58.3,30.00,SW,230,5.4,5.4,50,0.00,,---,0.00,VWS V14.01,2013-06-20 15:21:00,
2013-06-20 10:26:00,79.3,59.1,30.00,South,190,5.4,5.4,50,0.00,,---,0.00,VWS V14.01,2013-06-20 15:26:00,
2013-06-20 10:32:00,80.8,59.3,30.00,SW,219,4.5,5.4,48,0.00,,---,0.00,VWS V14.01,2013-06-20 15:32:00,
2013-06-20 10:37:00,81.7,59.5,30.00,SSW,201,0.0,3.1,47,0.00,,---,0.00,VWS V14.01,2013-06-20 15:37:00,
2013-06-20 10:42:00,81.7,58.9,30.00,SSW,204,4.0,6.7,46,0.00,,---,0.00,VWS V14.01,2013-06-20 15:42:00,
2013-06-20 10:47:00,81.3,58.6,29.97,SSW,204,3.6,5.8,46,0.00,,---,0.00,VWS V14.01,2013-06-20 15:47:00,
2013-06-20 10:52:00,80.4,57.8,29.97,SW,216,7.2,7.2,46,0.00,,---,0.00,VWS V14.01,2013-06-20 15:52:00,
2013-06-20 10:58:00,79.2,57.8,29.97,South,178,4.0,8.1,48,0.00,,---,0.00,VWS V14.01,2013-06-20 15:58:00,
2013-06-20 11:03:00,77.9,57.8,29.97,SSW,209,4.9,6.3,50,0.00,,---,0.00,VWS V14.01,2013-06-20 16:03:00,
2013-06-20 11:09:00,77.4,58.4,29.97,SSW,205,7.6,7.6,52,0.00,,---,0.00,VWS V14.01,2013-06-20 16:09:00,
2013-06-20 11:14:00,77.5,58.5,29.97,SW,218,5.4,6.3,52,0.00,,---,0.00,VWS V14.01,2013-06-20 16:14:00,
2013-06-20 11:20:00,78.1,59.6,29.97,SW,219,3.1,6.3,53,0.00,,---,0.00,VWS V14.01,2013-06-20 16:20:00,
2013-06-20 11:25:00,78.3,59.2,29.97,SW,219,7.6,8.1,52,0.00,,---,0.00,VWS V14.01,2013-06-20 16:25:00,
2013-06-20 11:30:00,78.4,59.4,29.97,SW,218,6.3,8.1,52,0.00,,---,0.00,VWS V14.01,2013-06-20 16:30:00,
2013-06-20 11:35:00,79.2,59.5,29.97,SSW,213,8.3,9.6,51,0.00,,---,0.00,VWS V14.01,2013-06-20 16:35:00,
2013-06-20 11:40:00,79.7,60.0,29.97,SSW,213,7.2,8.3,51,0.00,,---,0.00,VWS V14.01,2013-06-20 16:40:00,
2013-06-20 11:46:00,80.1,59.2,29.97,SW,225,5.8,8.3,49,0.00,,---,0.00,VWS V14.01,2013-06-20 16:46:00,
2013-06-20 11:51:00,80.2,58.8,29.97,SSW,202,8.1,8.1,48,0.00,,---,0.00,VWS V14.01,2013-06-20 16:51:00,
2013-06-20 11:56:00,81.1,60.2,29.97,South,174,5.8,7.6,49,0.00,,---,0.00,VWS V14.01,2013-06-20 16:56:00,
2013-06-20 12:02:00,81.7,59.5,29.91,SE,142,8.1,8.7,47,0.00,,---,0.00,VWS V14.01,2013-06-20 17:02:00,
2013-06-20 12:07:00,81.3,59.2,29.91,SSE,154,8.7,8.7,47,0.00,,---,0.00,VWS V14.01,2013-06-20 17:07:00,
2013-06-20 12:13:00,81.1,59.0,29.91,SE,146,5.8,6.3,47,0.00,,---,0.00,VWS V14.01,2013-06-20 17:13:00,
2013-06-20 12:18:00,81.9,59.1,29.88,South,184,4.0,5.8,46,0.00,,---,0.00,VWS V14.01,2013-06-20 17:18:00,
2013-06-20 12:23:00,83.3,59.8,29.88,South,171,0.0,2.7,45,0.00,,---,0.00,VWS V14.01,2013-06-20 17:23:00,
2013-06-20 12:28:00,84.2,60.0,29.88,SW,229,7.6,7.6,44,0.00,,---,0.00,VWS V14.01,2013-06-20 17:28:00,
2013-06-20 12:33:00,84.7,58.5,29.91,SSE,162,5.4,10.1,41,0.00,,---,0.00,VWS V14.01,2013-06-20 17:33:00,
2013-06-20 12:38:00,85.1,59.5,29.91,SSE,165,6.3,6.3,42,0.00,,---,0.00,VWS V14.01,2013-06-20 17:38:00,
2013-06-20 12:44:00,84.9,57.9,29.91,SE,138,8.1,8.1,40,0.00,,---,0.00,VWS V14.01,2013-06-20 17:44:00,
2013-06-20 12:50:00,84.9,59.3,29.91,SSW,195,10.1,10.1,42,0.00,,---,0.00,VWS V14.01,2013-06-20 17:50:00,
2013-06-20 12:55:00,85.1,59.5,29.91,SE,142,4.0,5.8,42,0.00,,---,0.00,VWS V14.01,2013-06-20 17:55:00,
2013-06-20 13:00:00,84.9,58.6,29.91,SE,135,8.3,8.3,41,0.00,,---,0.00,VWS V14.01,2013-06-20 18:00:00,
2013-06-20 13:05:00,84.6,58.3,29.91,ESE,122,5.4,8.1,41,0.00,,---,0.00,VWS V14.01,2013-06-20 18:05:00,
2013-06-20 13:10:00,84.0,58.5,29.91,SE,143,4.9,8.1,42,0.00,,---,0.00,VWS V14.01,2013-06-20 18:10:00,
2013-06-20 13:16:00,84.0,57.8,29.91,SW,221,3.1,5.8,41,0.00,,---,0.00,VWS V14.01,2013-06-20 18:16:00,
2013-06-20 13:21:00,83.7,58.2,29.91,South,186,4.9,4.9,42,0.00,,---,0.00,VWS V14.01,2013-06-20 18:21:00,
2013-06-20 13:26:00,83.8,58.3,29.91,SSE,160,3.1,4.9,42,0.00,,---,0.00,VWS V14.01,2013-06-20 18:26:00,
2013-06-20 13:32:00,84.6,57.6,29.94,SE,134,2.7,4.9,40,0.00,,---,0.00,VWS V14.01,2013-06-20 18:32:00,
2013-06-20 13:37:00,85.8,59.4,29.94,SE,137,4.0,5.8,41,0.00,,---,0.00,VWS V14.01,2013-06-20 18:37:00,
2013-06-20 13:42:00,86.9,59.7,29.94,SE,131,4.9,5.4,40,0.00,,---,0.00,VWS V14.01,2013-06-20 18:42:00,
2013-06-20 13:48:00,87.3,58.6,29.94,South,172,4.9,5.8,38,0.00,,---,0.00,VWS V14.01,2013-06-20 18:48:00,
2013-06-20 13:54:00,87.6,59.6,29.94,SE,139,2.7,6.3,39,0.00,,---,0.00,VWS V14.01,2013-06-20 18:54:00,
2013-06-20 13:59:00,87.6,59.6,29.94,SSW,205,8.3,8.3,39,0.00,,---,0.00,VWS V14.01,2013-06-20 18:59:00,
2013-06-20 14:04:00,88.2,59.4,29.94,SSE,159,3.1,4.0,38,0.00,,---,0.00,VWS V14.01,2013-06-20 19:04:00,
2013-06-20 14:09:00,88.7,57.6,29.94,SSW,202,4.0,8.1,35,0.00,,---,0.00,VWS V14.01,2013-06-20 19:09:00,
2013-06-20 14:14:00,88.7,56.8,29.94,SE,129,4.0,6.3,34,0.00,,---,0.00,VWS V14.01,2013-06-20 19:14:00,
2013-06-20 14:19:00,88.9,59.3,29.94,SE,137,4.0,4.0,37,0.00,,---,0.00,VWS V14.01,2013-06-20 19:19:00,
2013-06-20 14:24:00,88.7,57.6,29.94,SSE,161,3.6,8.1,35,0.00,,---,0.00,VWS V14.01,2013-06-20 19:24:00,
2013-06-20 14:29:00,88.9,57.7,29.94,SSE,152,4.0,5.4,35,0.00,,---,0.00,VWS V14.01,2013-06-20 19:29:00,
2013-06-20 14:35:00,89.4,58.2,29.94,SE,144,5.8,8.3,35,0.00,,---,0.00,VWS V14.01,2013-06-20 19:35:00,
2013-06-20 14:40:00,89.8,58.5,29.94,SSW,205,8.3,8.3,35,0.00,,---,0.00,VWS V14.01,2013-06-20 19:40:00,
2013-06-20 14:46:00,90.0,58.7,29.94,South,176,3.1,4.0,35,0.00,,---,0.00,VWS V14.01,2013-06-20 19:46:00,
2013-06-20 14:51:00,89.6,59.1,29.94,SE,140,2.7,3.1,36,0.00,,---,0.00,VWS V14.01,2013-06-20 19:51:00,
2013-06-20 14:56:00,90.1,59.6,29.94,SSW,203,5.4,5.4,36,0.00,,---,0.00,VWS V14.01,2013-06-20 19:56:00,
2013-06-20 15:01:00,90.0,57.9,29.91,SE,142,2.7,5.4,34,0.00,,---,0.00,VWS V14.01,2013-06-20 20:01:00,
2013-06-20 15:07:00,89.4,57.4,29.91,ESE,119,4.0,4.9,34,0.00,,---,0.00,VWS V14.01,2013-06-20 20:07:00,
2013-06-20 15:12:00,89.8,57.7,29.91,SSE,158,3.1,4.0,34,0.00,,---,0.00,VWS V14.01,2013-06-20 20:12:00,
2013-06-20 15:18:00,89.6,58.3,29.91,SE,146,3.6,4.0,35,0.00,,---,0.00,VWS V14.01,2013-06-20 20:18:00,
2013-06-20 15:24:00,90.0,56.2,29.91,SSE,167,2.2,5.4,32,0.00,,---,0.00,VWS V14.01,2013-06-20 20:24:00,
2013-06-20 15:29:00,90.0,56.2,29.91,SSW,197,3.6,7.6,32,0.00,,---,0.00,VWS V14.01,2013-06-20 20:29:00,
2013-06-20 15:34:00,90.5,56.6,29.91,South,173,5.4,5.4,32,0.00,,---,0.00,VWS V14.01,2013-06-20 20:34:00,
2013-06-20 15:39:00,90.3,55.6,29.91,South,188,2.7,10.1,31,0.00,,---,0.00,VWS V14.01,2013-06-20 20:39:00,
2013-06-20 15:45:00,91.2,55.5,29.91,South,185,5.4,6.3,30,0.00,,---,0.00,VWS V14.01,2013-06-20 20:45:00,
2013-06-20 15:50:00,91.0,54.4,29.91,South,189,4.9,6.3,29,0.00,,---,0.00,VWS V14.01,2013-06-20 20:50:00,
2013-06-20 15:56:00,90.7,55.0,29.91,SSE,149,2.7,3.1,30,0.00,,---,0.00,VWS V14.01,2013-06-20 20:56:00,
2013-06-20 16:01:00,89.4,53.9,29.91,SSE,153,3.1,5.8,30,0.00,,---,0.00,VWS V14.01,2013-06-20 21:01:00,
2013-06-20 16:07:00,88.7,53.3,29.91,SSE,152,3.1,5.8,30,0.00,,---,0.00,VWS V14.01,2013-06-20 21:07:00,
2013-06-20 16:12:00,88.3,53.9,29.91,SSE,155,4.0,4.9,31,0.00,,---,0.00,VWS V14.01,2013-06-20 21:12:00,
2013-06-20 16:18:00,89.1,55.4,29.91,South,190,3.6,5.4,32,0.00,,---,0.00,VWS V14.01,2013-06-20 21:18:00,
2013-06-20 16:23:00,90.1,54.5,29.91,South,186,4.0,7.6,30,0.00,,---,0.00,VWS V14.01,2013-06-20 21:23:00,
2013-06-20 16:28:00,91.2,55.5,29.91,SSE,159,2.7,5.8,30,0.00,,---,0.00,VWS V14.01,2013-06-20 21:28:00,
2013-06-20 16:34:00,91.6,54.9,29.91,SE,144,5.4,6.7,29,0.00,,---,0.00,VWS V14.01,2013-06-20 21:34:00,
2013-06-20 16:39:00,92.3,55.5,29.91,South,172,3.6,6.3,29,0.00,,---,0.00,VWS V14.01,2013-06-20 21:39:00,
2013-06-20 16:45:00,92.5,53.7,29.91,SSW,207,4.0,4.9,27,0.00,,---,0.00,VWS V14.01,2013-06-20 21:45:00,
2013-06-20 16:50:00,92.7,54.8,29.91,WSW,247,8.1,8.1,28,0.00,,---,0.00,VWS V14.01,2013-06-20 21:50:00,
2013-06-20 16:55:00,92.3,54.5,29.91,South,178,8.3,8.7,28,0.00,,---,0.00,VWS V14.01,2013-06-20 21:55:00,
2013-06-20 17:00:00,91.6,53.9,29.91,SE,139,6.3,8.3,28,0.00,,---,0.00,VWS V14.01,2013-06-20 22:00:00,
2013-06-20 17:06:00,90.1,52.7,29.91,South,170,11.0,11.0,28,0.00,,---,0.00,VWS V14.01,2013-06-20 22:06:00,
2013-06-20 17:11:00,89.6,53.2,29.91,South,182,6.3,10.5,29,0.00,,---,0.00,VWS V14.01,2013-06-20 22:11:00,
2013-06-20 17:16:00,90.5,53.9,29.91,South,185,2.7,3.1,29,0.00,,---,0.00,VWS V14.01,2013-06-20 22:16:00,
2013-06-20 17:21:00,90.7,54.1,29.91,SSW,198,5.4,6.3,29,0.00,,---,0.00,VWS V14.01,2013-06-20 22:21:00,
2013-06-20 17:26:00,90.3,53.8,29.91,SSE,163,8.3,14.5,29,0.00,,---,0.00,VWS V14.01,2013-06-20 22:26:00,
2013-06-20 17:31:00,91.0,54.4,29.91,South,185,5.4,8.3,29,0.00,,---,0.00,VWS V14.01,2013-06-20 22:31:00,
2013-06-20 17:37:00,91.6,55.8,29.91,SE,141,0.0,2.2,30,0.00,,---,0.00,VWS V14.01,2013-06-20 22:37:00,
2013-06-20 17:42:00,90.7,55.0,29.91,SSE,148,2.7,2.7,30,0.00,,---,0.00,VWS V14.01,2013-06-20 22:42:00,
2013-06-20 17:47:00,89.2,56.4,29.91,SE,142,2.7,3.6,33,0.00,,---,0.00,VWS V14.01,2013-06-20 22:47:00,
2013-06-20 17:52:00,88.5,55.8,29.91,SSE,162,2.7,3.6,33,0.00,,---,0.00,VWS V14.01,2013-06-20 22:52:00,
2013-06-20 17:58:00,87.8,56.0,29.91,SSE,163,0.0,0.0,34,0.00,,---,0.00,VWS V14.01,2013-06-20 22:58:00,
2013-06-20 18:03:00,87.6,56.6,29.88,SSE,164,0.0,0.0,35,0.00,,---,0.00,VWS V14.01,2013-06-20 23:03:00,
2013-06-20 18:08:00,88.2,57.1,29.88,SSE,152,0.0,0.0,35,0.00,,---,0.00,VWS V14.01,2013-06-20 23:08:00,
2013-06-20 18:13:00,88.3,57.2,29.88,SSE,154,0.0,0.0,35,0.00,,---,0.00,VWS V14.01,2013-06-20 23:13:00,
2013-06-20 18:18:00,88.0,56.1,29.88,SSE,153,0.0,0.0,34,0.00,,---,0.00,VWS V14.01,2013-06-20 23:18:00,
2013-06-20 18:24:00,87.1,56.9,29.88,SSE,153,0.0,0.0,36,0.00,,---,0.00,VWS V14.01,2013-06-20 23:24:00,
2013-06-20 18:30:00,88.0,57.7,29.88,SSE,153,0.0,0.0,36,0.00,,---,0.00,VWS V14.01,2013-06-20 23:30:00,
2013-06-20 18:35:00,88.2,57.1,29.91,SSE,153,0.0,0.0,35,0.00,,---,0.00,VWS V14.01,2013-06-20 23:35:00,
2013-06-20 18:41:00,87.8,56.8,29.91,South,183,3.1,3.1,35,0.00,,---,0.00,VWS V14.01,2013-06-20 23:41:00,
2013-06-20 18:46:00,88.0,56.1,29.88,SSE,158,0.0,0.0,34,0.00,,---,0.00,VWS V14.01,2013-06-20 23:46:00,
2013-06-20 18:52:00,88.0,56.9,29.88,South,183,0.0,3.1,35,0.00,,---,0.00,VWS V14.01,2013-06-20 23:52:00,
2013-06-20 18:58:00,87.6,56.6,29.88,South,183,0.0,0.0,35,0.00,,---,0.00,VWS V14.01,2013-06-20 23:58:00,
2013-06-20 19:03:00,87.4,57.2,29.88,South,185,0.0,0.0,36,0.00,,---,0.00,VWS V14.01,2013-06-21 00:03:00,
2013-06-20 19:09:00,87.1,56.9,29.88,South,185,0.0,0.0,36,0.00,,---,0.00,VWS V14.01,2013-06-21 00:09:00,
2013-06-20 19:14:00,86.4,57.8,29.88,ESE,103,3.1,3.6,38,0.00,,---,0.00,VWS V14.01,2013-06-21 00:14:00,
2013-06-20 19:20:00,84.0,58.5,29.88,SE,124,5.4,6.3,42,0.00,,---,0.00,VWS V14.01,2013-06-21 00:20:00,
2013-06-20 19:25:00,80.1,60.9,29.88,ENE,60,5.8,8.1,52,0.00,,---,0.00,VWS V14.01,2013-06-21 00:25:00,
2013-06-20 19:30:00,78.6,61.6,29.88,ESE,102,6.3,10.5,56,0.00,,---,0.00,VWS V14.01,2013-06-21 00:30:00,
2013-06-20 19:36:00,77.4,61.4,29.88,East,96,7.2,8.7,58,0.00,,---,0.00,VWS V14.01,2013-06-21 00:36:00,
2013-06-20 19:41:00,76.8,61.9,29.88,ESE,104,8.7,8.7,60,0.00,,---,0.00,VWS V14.01,2013-06-21 00:41:00,
2013-06-20 19:47:00,76.1,61.7,29.88,ENE,67,7.2,7.6,61,0.00,,---,0.00,VWS V14.01,2013-06-21 00:47:00,
2013-06-20 19:52:00,75.9,62.0,29.88,East,99,5.8,8.1,62,0.00,,---,0.00,VWS V14.01,2013-06-21 00:52:00,
2013-06-20 19:58:00,75.6,61.6,29.88,ENE,68,8.7,8.7,62,0.00,,---,0.00,VWS V14.01,2013-06-21 00:58:00,
2013-06-20 20:04:00,75.6,61.6,29.91,ENE,75,5.4,12.3,62,0.00,,---,0.00,VWS V14.01,2013-06-21 01:04:00,
2013-06-20 20:09:00,75.4,61.9,29.91,East,85,6.3,8.7,63,0.00,,---,0.00,VWS V14.01,2013-06-21 01:09:00,
2013-06-20 20:15:00,75.4,61.9,29.91,NE,52,6.3,7.6,63,0.00,,---,0.00,VWS V14.01,2013-06-21 01:15:00,
2013-06-20 20:20:00,75.2,62.2,29.88,ENE,57,5.8,6.3,64,0.00,,---,0.00,VWS V14.01,2013-06-21 01:20:00,
2013-06-20 20:26:00,74.7,62.6,29.88,East,84,8.3,8.3,66,0.00,,---,0.00,VWS V14.01,2013-06-21 01:26:00,
2013-06-20 20:32:00,74.5,62.4,29.91,NE,53,8.1,13.6,66,0.00,,---,0.00,VWS V14.01,2013-06-21 01:32:00,
2013-06-20 20:37:00,74.3,62.2,29.91,ESE,115,10.1,14.5,66,0.00,,---,0.00,VWS V14.01,2013-06-21 01:37:00,
2013-06-20 20:43:00,73.8,62.1,29.91,ENE,58,10.1,13.6,67,0.00,,---,0.00,VWS V14.01,2013-06-21 01:43:00,
2013-06-20 20:48:00,73.8,62.5,29.91,East,86,6.3,13.6,68,0.00,,---,0.00,VWS V14.01,2013-06-21 01:48:00,
2013-06-20 20:53:00,73.4,62.2,29.91,ENE,67,7.6,8.7,68,0.00,,---,0.00,VWS V14.01,2013-06-21 01:53:00,
2013-06-20 20:58:00,73.2,62.5,29.91,ENE,69,8.3,10.1,69,0.00,,---,0.00,VWS V14.01,2013-06-21 01:58:00,
2013-06-20 21:04:00,73.0,62.7,29.91,East,90,10.5,10.5,70,0.00,,---,0.00,VWS V14.01,2013-06-21 02:04:00,
2013-06-20 21:09:00,72.9,62.5,29.91,East,97,6.3,12.3,70,0.00,,---,0.00,VWS V14.01,2013-06-21 02:09:00,
2013-06-20 21:14:00,72.7,63.1,29.91,ENE,76,5.4,8.3,72,0.00,,---,0.00,VWS V14.01,2013-06-21 02:14:00,
2013-06-20 21:19:00,72.5,63.0,29.88,ENE,72,7.6,8.3,72,0.00,,---,0.00,VWS V14.01,2013-06-21 02:19:00,
2013-06-20 21:24:00,72.5,63.4,29.88,East,97,12.3,14.5,73,0.00,,---,0.00,VWS V14.01,2013-06-21 02:24:00,
2013-06-20 21:29:00,72.3,63.6,29.88,East,89,10.5,11.0,74,0.00,,---,0.00,VWS V14.01,2013-06-21 02:29:00,
2013-06-20 21:35:00,72.1,63.0,29.88,East,80,6.3,11.9,73,0.00,,---,0.00,VWS V14.01,2013-06-21 02:35:00,
2013-06-20 21:40:00,72.0,62.5,29.88,ESE,123,11.0,16.3,72,0.00,,---,0.00,VWS V14.01,2013-06-21 02:40:00,
2013-06-20 21:46:00,71.6,62.1,29.88,East,90,8.1,12.3,72,0.00,,---,0.00,VWS V14.01,2013-06-21 02:46:00,
2013-06-20 21:51:00,71.6,62.9,29.88,East,89,10.1,10.5,74,0.00,,---,0.00,VWS V14.01,2013-06-21 02:51:00,
2013-06-20 21:56:00,71.4,63.1,29.88,East,92,8.3,8.3,75,0.00,,---,0.00,VWS V14.01,2013-06-21 02:56:00,
2013-06-20 22:01:00,71.2,62.9,29.88,East,97,8.1,12.3,75,0.00,,---,0.00,VWS V14.01,2013-06-21 03:01:00,
2013-06-20 22:07:00,71.2,62.9,29.88,East,97,8.3,12.8,75,0.00,,---,0.00,VWS V14.01,2013-06-21 03:07:00,
2013-06-20 22:12:00,71.2,62.9,29.88,ESE,117,8.1,13.2,75,0.00,,---,0.00,VWS V14.01,2013-06-21 03:12:00,
2013-06-20 22:18:00,71.1,63.1,29.88,ENE,70,10.5,11.9,76,0.00,,---,0.00,VWS V14.01,2013-06-21 03:18:00,
2013-06-20 22:23:00,70.9,63.0,29.88,ENE,70,8.3,8.3,76,0.00,,---,0.00,VWS V14.01,2013-06-21 03:23:00,
2013-06-20 22:28:00,70.7,63.1,29.88,ENE,59,13.2,13.2,77,0.00,,---,0.00,VWS V14.01,2013-06-21 03:28:00,
2013-06-20 22:33:00,70.7,63.1,29.88,ENE,72,5.4,7.6,77,0.00,,---,0.00,VWS V14.01,2013-06-21 03:33:00,
2013-06-20 22:39:00,70.5,63.3,29.88,NE,47,8.7,10.5,78,0.00,,---,0.00,VWS V14.01,2013-06-21 03:39:00,
2013-06-20 22:44:00,70.5,63.0,29.88,East,85,7.6,7.6,77,0.00,,---,0.00,VWS V14.01,2013-06-21 03:44:00,
2013-06-20 22:50:00,70.2,62.6,29.88,ESE,118,8.7,12.3,77,0.00,,---,0.00,VWS V14.01,2013-06-21 03:50:00,
2013-06-20 22:55:00,70.0,62.8,29.88,ENE,72,12.3,12.3,78,0.00,,---,0.00,VWS V14.01,2013-06-21 03:55:00,
2013-06-20 23:00:00,70.3,63.2,29.88,SE,130,8.1,15.9,78,0.00,,---,0.00,VWS V14.01,2013-06-21 04:00:00,
2013-06-20 23:01:00,70.2,63.0,29.88,East,98,8.3,15.4,78,0.00,,---,0.00,VWS V14.01,2013-06-21 04:01:00,
2013-06-20 23:02:00,70.2,63.0,29.88,East,96,8.1,8.3,78,0.00,,---,0.00,VWS V14.01,2013-06-21 04:02:00,
2013-06-20 23:04:00,70.2,63.0,29.88,ESE,102,10.1,12.8,78,0.00,,---,0.00,VWS V14.01,2013-06-21 04:04:00,
2013-06-20 23:06:00,70.2,63.0,29.88,East,80,6.3,9.6,78,0.00,,---,0.00,VWS V14.01,2013-06-21 04:06:00,
2013-06-20 23:11:00,70.0,62.8,29.88,ESE,107,8.7,11.0,78,0.00,,---,0.00,VWS V14.01,2013-06-21 04:11:00,
2013-06-20 23:12:00,70.2,63.0,29.88,SE,127,11.9,11.9,78,0.00,,---,0.00,VWS V14.01,2013-06-21 04:12:00,
2013-06-20 23:17:00,69.8,62.3,29.85,East,95,10.5,11.0,77,0.00,,---,0.00,VWS V14.01,2013-06-21 04:17:00,
2013-06-20 23:23:00,69.8,62.6,29.85,East,88,8.1,10.1,78,0.00,,---,0.00,VWS V14.01,2013-06-21 04:23:00,
2013-06-20 23:29:00,69.8,63.0,29.85,East,95,10.1,16.3,79,0.00,,---,0.00,VWS V14.01,2013-06-21 04:29:00,
2013-06-20 23:34:00,69.4,63.0,29.88,ESE,105,12.3,12.3,80,0.00,,---,0.00,VWS V14.01,2013-06-21 04:34:00,
2013-06-20 23:40:00,69.1,64.4,29.88,NE,52,8.1,10.5,85,0.00,,---,0.00,VWS V14.01,2013-06-21 04:40:00,
2013-06-20 23:45:00,69.1,65.4,29.88,East,79,8.1,8.1,88,0.00,,---,0.00,VWS V14.01,2013-06-21 04:45:00,
2013-06-20 23:50:00,68.7,65.3,29.85,North,357,4.0,5.4,89,0.00,,---,0.00,VWS V14.01,2013-06-21 04:50:00,
2013-06-20 23:56:00,68.7,65.3,29.85,WSW,257,5.8,8.1,89,0.00,,---,0.00,VWS V14.01,2013-06-21 04:56:00,